createdAt,value
2023-04-15T00:01:37.321Z,5.80
2023-04-15T00:04:40.146Z,5.78
2023-04-15T00:07:42.790Z,5.13
2023-04-15T00:10:46.734Z,5.10
2023-04-15T00:13:49.540Z,5.78
2023-04-15T00:16:56.300Z,5.90
2023-04-15T00:20:00.049Z,5.97
2023-04-15T00:23:04.207Z,5.90
2023-04-15T00:26:07.570Z,5.85
2023-04-15T00:29:10.520Z,5.93
2023-04-15T00:32:13.486Z,6.40
2023-04-15T00:35:16.820Z,6.05
2023-04-15T00:38:20.699Z,6.07
2023-04-15T00:41:23.681Z,5.88
2023-04-15T00:44:26.328Z,5.75
2023-04-15T00:47:31.383Z,5.50
2023-04-15T00:50:34.023Z,5.57
2023-04-15T00:53:36.688Z,6.15
2023-04-15T00:56:39.970Z,5.30
2023-04-15T00:59:43.013Z,6.22
2023-04-15T01:02:45.927Z,6.07
2023-04-15T01:05:50.110Z,6.28
2023-04-15T01:08:54.284Z,6.22
2023-04-15T01:11:57.208Z,5.45
2023-04-15T01:15:00.879Z,5.90
2023-04-15T01:18:03.615Z,6.47
2023-04-15T01:21:08.174Z,6.45
2023-04-15T01:24:11.823Z,5.70
2023-04-15T01:27:14.961Z,5.90
2023-04-15T01:30:17.795Z,6.07
2023-04-15T01:33:20.684Z,6.60
2023-04-15T01:36:23.359Z,6.43
2023-04-15T01:39:29.549Z,5.95
2023-04-15T01:42:33.796Z,6.00
2023-04-15T01:45:36.438Z,6.65
2023-04-15T01:48:40.037Z,6.72
2023-04-15T01:51:42.639Z,6.50
2023-04-15T01:54:46.707Z,6.57
2023-04-15T01:57:49.385Z,7.20
2023-04-15T02:00:52.853Z,7.32
2023-04-15T02:03:55.518Z,7.43
2023-04-15T02:06:58.233Z,7.22
2023-04-15T02:10:00.774Z,8.00
2023-04-15T02:13:03.534Z,7.88
2023-04-15T02:16:16.774Z,8.50
2023-04-15T02:19:20.194Z,8.02
2023-04-15T02:22:23.190Z,8.32
2023-04-15T02:25:25.869Z,8.48
2023-04-15T02:28:28.587Z,8.27
2023-04-15T02:31:34.170Z,8.35
2023-04-15T02:34:38.507Z,8.32
2023-04-15T02:37:43.828Z,7.45
2023-04-15T02:40:49.695Z,8.07
2023-04-15T02:43:57.311Z,8.13
2023-04-15T02:46:59.925Z,7.72
2023-04-15T02:50:04.065Z,8.32
2023-04-15T02:53:07.556Z,8.02
2023-04-15T02:56:10.358Z,8.10
2023-04-15T02:59:13.481Z,8.85
2023-04-15T03:02:17.454Z,7.85
2023-04-15T03:05:20.550Z,8.23
2023-04-15T03:08:26.623Z,8.25
2023-04-15T03:11:29.759Z,8.70
2023-04-15T03:14:32.629Z,6.85
2023-04-15T03:17:35.826Z,6.55
2023-04-15T03:20:39.053Z,7.22
2023-04-15T03:23:42.117Z,7.57
2023-04-15T03:26:44.989Z,6.85
2023-04-15T03:29:51.743Z,6.72
2023-04-15T03:32:56.003Z,5.20
2023-04-15T03:35:58.781Z,5.70
2023-04-15T03:39:02.605Z,5.20
2023-04-15T03:42:05.649Z,5.35
2023-04-15T03:45:08.560Z,5.32
2023-04-15T03:48:17.597Z,5.68
2023-04-15T03:51:20.750Z,6.00
2023-04-15T03:54:23.263Z,5.00
2023-04-15T03:57:25.810Z,5.72
2023-04-15T04:00:28.731Z,5.47
2023-04-15T04:03:32.051Z,5.53
2023-04-15T04:06:34.735Z,5.75
2023-04-15T04:09:39.275Z,6.20
2023-04-15T04:12:41.847Z,5.72
2023-04-15T04:15:44.665Z,5.78
2023-04-15T04:18:47.195Z,5.90
2023-04-15T04:21:50.174Z,9.30
2023-04-15T04:24:52.866Z,10.57
2023-04-15T04:27:56.486Z,7.07
2023-04-15T04:31:00.629Z,5.43
2023-04-15T04:34:03.216Z,4.82
2023-04-15T04:37:05.970Z,5.75
2023-04-15T04:40:10.754Z,5.30
2023-04-15T04:43:14.736Z,4.95
2023-04-15T04:46:17.495Z,5.13
2023-04-15T04:49:20.117Z,5.13
2023-04-15T04:52:23.194Z,4.63
2023-04-15T04:55:25.830Z,5.38
2023-04-15T04:58:28.274Z,5.03
2023-04-15T05:01:31.058Z,5.53
2023-04-15T05:04:34.562Z,5.20
2023-04-15T05:07:37.306Z,5.43
2023-04-15T05:10:40.004Z,5.47
2023-04-15T05:13:42.798Z,5.50
2023-04-15T05:16:45.256Z,5.95
2023-04-15T05:19:48.268Z,11.38
2023-04-15T05:22:50.895Z,6.15
2023-04-15T05:25:53.635Z,6.13
2023-04-15T05:28:56.219Z,6.22
2023-04-15T05:31:59.527Z,6.40
2023-04-15T05:35:02.174Z,6.07
2023-04-15T05:38:04.787Z,6.88
2023-04-15T05:41:07.586Z,6.63
2023-04-15T05:44:10.769Z,6.63
2023-04-15T05:47:13.315Z,6.43
2023-04-15T05:50:17.023Z,7.03
2023-04-15T05:53:19.782Z,6.18
2023-04-15T05:56:22.414Z,7.05
2023-04-15T05:59:25.525Z,6.50
2023-04-15T06:02:28.137Z,6.43
2023-04-15T06:05:30.723Z,6.63
2023-04-15T06:08:33.361Z,6.25
2023-04-15T06:11:36.388Z,6.82
2023-04-15T06:14:39.523Z,6.78
2023-04-15T06:17:42.060Z,7.10
2023-04-15T06:20:44.664Z,6.47
2023-04-15T06:23:47.530Z,6.32
2023-04-15T06:26:51.391Z,6.20
2023-04-15T06:29:54.827Z,6.53
2023-04-15T06:32:57.673Z,6.13
2023-04-15T06:36:00.247Z,5.75
2023-04-15T06:39:03.939Z,5.65
2023-04-15T06:42:06.899Z,5.38
2023-04-15T06:45:10.292Z,5.55
2023-04-15T06:48:13.199Z,5.25
2023-04-15T06:51:17.170Z,4.88
2023-04-15T06:54:23.871Z,4.85
2023-04-15T06:57:26.491Z,5.85
2023-04-15T07:00:29.292Z,5.53
2023-04-15T07:03:33.015Z,5.57
2023-04-15T07:06:35.806Z,5.47
2023-04-15T07:09:38.845Z,5.05
2023-04-15T07:12:41.655Z,5.20
2023-04-15T07:15:44.924Z,5.63
2023-04-15T07:18:47.557Z,5.13
2023-04-15T07:21:50.338Z,5.57
2023-04-15T07:24:52.781Z,5.30
2023-04-15T07:27:55.660Z,5.25
2023-04-15T07:30:58.307Z,5.57
2023-04-15T07:34:01.169Z,5.13
2023-04-15T07:37:04.064Z,5.00
2023-04-15T07:40:07.559Z,4.43
2023-04-15T07:43:10.161Z,4.25
2023-04-15T07:46:12.889Z,4.55
2023-04-15T07:49:15.822Z,4.38
2023-04-15T07:52:19.172Z,4.13
2023-04-15T07:55:23.482Z,4.13
2023-04-15T07:58:26.360Z,3.90
2023-04-15T08:01:28.848Z,3.50
2023-04-15T08:04:32.639Z,4.30
2023-04-15T08:07:37.863Z,3.38
2023-04-15T08:10:42.352Z,3.30
2023-04-15T08:13:44.861Z,3.85
2023-04-15T08:16:47.769Z,3.25
2023-04-15T08:19:50.413Z,2.85
2023-04-15T08:22:53.839Z,2.70
2023-04-15T08:25:56.396Z,2.65
2023-04-15T08:28:59.573Z,2.55
2023-04-15T08:32:02.805Z,2.33
2023-04-15T08:35:05.758Z,2.47
2023-04-15T08:38:09.356Z,3.60
2023-04-15T08:41:20.760Z,2.72
2023-04-15T08:44:25.662Z,2.92
2023-04-15T08:50:34.969Z,2.70
2023-04-15T08:53:38.739Z,2.28
2023-04-15T08:56:42.718Z,2.40
2023-04-15T08:59:45.576Z,2.42
2023-04-15T09:02:48.794Z,2.20
2023-04-15T09:05:53.294Z,2.22
2023-04-15T09:08:56.588Z,2.22
2023-04-15T09:12:01.630Z,2.22
2023-04-15T09:18:07.228Z,2.20
2023-04-15T09:21:15.018Z,1.88
2023-04-15T09:24:17.836Z,1.98
2023-04-15T09:27:21.057Z,2.10
2023-04-15T09:30:24.402Z,2.10
2023-04-15T09:33:29.364Z,1.90
2023-04-15T09:36:54.057Z,2.20
2023-04-15T09:39:57.443Z,2.10
2023-04-15T09:43:02.119Z,1.88
2023-04-15T09:46:04.867Z,1.85
2023-04-15T09:49:09.113Z,1.70
2023-04-15T09:52:14.119Z,2.17
2023-04-15T09:55:18.914Z,2.20
2023-04-15T09:58:23.675Z,1.90
2023-04-15T10:01:26.505Z,2.40
2023-04-15T10:04:30.513Z,2.47
2023-04-15T10:07:34.048Z,1.90
2023-04-15T10:10:37.208Z,3.38
2023-04-15T10:13:40.652Z,2.72
2023-04-15T10:16:49.199Z,3.00
2023-04-15T10:19:54.086Z,3.20
2023-04-15T10:22:58.155Z,3.47
2023-04-15T10:26:01.354Z,3.17
2023-04-15T10:29:05.015Z,2.63
2023-04-15T10:32:08.194Z,2.13
2023-04-15T10:35:12.054Z,1.88
2023-04-15T10:38:33.572Z,1.70
2023-04-15T10:41:37.944Z,2.13
2023-04-15T10:44:48.597Z,1.88
2023-04-15T10:47:59.061Z,1.30
2023-04-15T10:51:03.838Z,1.65
2023-04-15T10:54:13.546Z,2.00
2023-04-15T10:57:21.432Z,1.45
2023-04-15T11:00:30.135Z,1.50
2023-04-15T11:03:42.727Z,1.70
2023-04-15T11:06:46.017Z,1.70
2023-04-15T11:09:48.639Z,1.70
2023-04-15T11:12:53.751Z,1.95
2023-04-15T11:15:58.441Z,2.00
2023-04-15T11:19:01.821Z,1.90
2023-04-15T11:22:10.301Z,1.58
2023-04-15T11:25:26.131Z,1.52
2023-04-15T11:28:31.004Z,1.30
2023-04-15T11:31:36.358Z,1.80
2023-04-15T11:34:39.096Z,1.65
2023-04-15T11:37:41.975Z,1.45
2023-04-15T11:40:46.993Z,1.38
2023-04-15T11:43:51.274Z,1.42
2023-04-15T11:46:56.450Z,1.40
2023-04-15T11:50:23.417Z,1.60
2023-04-15T11:53:41.026Z,1.50
2023-04-15T11:56:50.910Z,1.45
2023-04-15T11:59:55.433Z,1.50
2023-04-15T12:03:30.626Z,1.52
2023-04-15T12:06:37.413Z,1.42
2023-04-15T12:09:40.220Z,1.42
2023-04-15T12:12:42.864Z,1.40
2023-04-15T12:15:45.458Z,1.40
2023-04-15T12:18:53.514Z,1.95
2023-04-15T12:22:02.550Z,1.52
2023-04-15T12:25:05.591Z,1.75
2023-04-15T12:28:12.261Z,1.98
2023-04-15T12:31:15.161Z,2.10
2023-04-15T12:34:18.825Z,1.55
2023-04-15T12:37:22.073Z,1.63
2023-04-15T12:40:24.791Z,1.80
2023-04-15T12:43:27.836Z,1.92
2023-04-15T12:46:30.686Z,2.08
2023-04-15T12:49:33.790Z,1.75
2023-04-15T12:52:36.440Z,2.08
2023-04-15T12:55:39.041Z,2.25
2023-04-15T12:58:43.205Z,3.20
2023-04-15T13:01:47.880Z,3.10
2023-04-15T13:04:50.956Z,3.40
2023-04-15T13:07:53.720Z,3.25
2023-04-15T13:10:56.854Z,2.88
2023-04-15T13:14:07.842Z,2.53
2023-04-15T13:17:11.633Z,2.03
2023-04-15T13:20:14.345Z,2.20
2023-04-15T13:23:17.777Z,2.20
2023-04-15T13:26:20.652Z,1.98
2023-04-15T13:29:23.406Z,2.03
2023-04-15T13:32:26.425Z,2.00
2023-04-15T13:35:29.251Z,2.10
2023-04-15T13:38:31.820Z,2.28
2023-04-15T13:41:34.440Z,2.40
2023-04-15T13:44:37.454Z,2.60
2023-04-15T13:47:41.373Z,3.15
2023-04-15T13:50:45.557Z,3.53
2023-04-15T13:53:48.338Z,3.45
2023-04-15T13:56:51.613Z,3.20
2023-04-15T13:59:54.364Z,3.85
2023-04-15T14:02:58.831Z,3.90
2023-04-15T14:06:02.310Z,4.53
2023-04-15T14:09:05.644Z,3.42
2023-04-15T14:12:08.540Z,3.30
2023-04-15T14:15:13.027Z,3.10
2023-04-15T14:18:15.722Z,2.83
2023-04-15T14:21:18.486Z,3.20
2023-04-15T14:24:21.347Z,3.35
2023-04-15T14:27:23.903Z,4.32
2023-04-15T14:30:27.304Z,4.55
2023-04-15T14:33:32.862Z,4.30
2023-04-15T14:36:36.177Z,4.88
2023-04-15T14:39:40.140Z,5.07
2023-04-15T14:42:43.245Z,4.15
2023-04-15T14:45:46.851Z,4.90
2023-04-15T14:48:50.965Z,4.28
2023-04-15T14:54:58.067Z,3.80
2023-04-15T14:58:02.504Z,4.10
2023-04-15T15:01:05.807Z,3.15
2023-04-15T15:04:11.303Z,2.42
2023-04-15T15:07:13.937Z,2.10
2023-04-15T15:10:16.633Z,2.30
2023-04-15T15:13:39.517Z,1.98
2023-04-15T15:16:42.930Z,1.65
2023-04-15T15:19:45.963Z,1.50
2023-04-15T15:22:49.020Z,1.50
2023-04-15T15:25:51.799Z,1.67
2023-04-15T15:28:54.954Z,1.80
2023-04-15T15:31:58.070Z,1.90
2023-04-15T15:35:00.844Z,1.70
2023-04-15T15:38:03.667Z,2.10
2023-04-15T15:41:06.776Z,1.98
2023-04-15T15:44:09.317Z,2.03
2023-04-15T15:47:12.339Z,1.90
2023-04-15T15:50:15.828Z,2.00
2023-04-15T15:53:21.185Z,2.20
2023-04-15T15:56:23.890Z,1.65
2023-04-15T15:59:26.532Z,1.85
2023-04-15T16:02:52.245Z,2.33
2023-04-15T16:05:53.750Z,2.67
2023-04-15T16:08:58.094Z,2.13
2023-04-15T16:12:02.299Z,2.38
2023-04-15T16:15:06.229Z,2.60
2023-04-15T16:18:08.995Z,2.50
2023-04-15T16:21:11.715Z,2.55
2023-04-15T16:24:15.348Z,3.00
2023-04-15T16:27:18.146Z,2.72
2023-04-15T16:30:22.182Z,2.65
2023-04-15T16:33:24.909Z,3.05
2023-04-15T16:36:27.703Z,2.78
2023-04-15T16:39:30.885Z,2.80
2023-04-15T16:42:34.451Z,2.72
2023-04-15T16:45:37.614Z,2.80
2023-04-15T16:48:40.233Z,2.83
2023-04-15T16:51:43.475Z,2.80
2023-04-15T16:54:46.874Z,2.92
2023-04-15T16:58:02.401Z,2.67
2023-04-15T17:01:06.695Z,3.10
2023-04-15T17:04:10.021Z,3.05
2023-04-15T17:07:12.746Z,3.33
2023-04-15T17:10:16.333Z,3.80
2023-04-15T17:13:19.102Z,3.22
2023-04-15T17:16:22.162Z,3.60
2023-04-15T17:19:26.900Z,3.97
2023-04-15T17:22:30.031Z,3.97
2023-04-15T17:25:32.536Z,4.40
2023-04-15T17:28:35.454Z,3.92
2023-04-15T17:31:38.307Z,3.72
2023-04-15T17:34:49.937Z,4.47
2023-04-15T17:37:54.121Z,3.80
2023-04-15T17:40:57.080Z,3.47
2023-04-15T17:44:00.650Z,3.60
2023-04-15T17:47:03.761Z,3.97
2023-04-15T17:50:08.565Z,4.45
2023-04-15T17:53:11.611Z,4.18
2023-04-15T17:56:15.068Z,4.55
2023-04-15T17:59:18.972Z,4.13
2023-04-15T18:02:22.913Z,4.22
2023-04-15T18:05:26.154Z,4.60
2023-04-15T18:08:29.756Z,4.05
2023-04-15T18:11:33.726Z,5.95
2023-04-15T18:14:36.740Z,6.15
2023-04-15T18:17:39.852Z,5.50
2023-04-15T18:20:43.527Z,5.00
2023-04-15T18:23:46.859Z,5.13
2023-04-15T18:26:50.057Z,4.93
2023-04-15T18:29:53.548Z,5.75
2023-04-15T18:32:56.831Z,5.00
2023-04-15T18:36:00.225Z,5.78
2023-04-15T18:39:04.897Z,5.70
2023-04-15T18:42:08.726Z,5.75
2023-04-15T18:45:32.895Z,5.55
2023-04-15T18:48:36.393Z,5.97
2023-04-15T18:51:40.035Z,5.28
2023-04-15T18:54:44.505Z,6.78
2023-04-15T18:57:48.394Z,6.53
2023-04-15T19:00:52.421Z,6.72
2023-04-15T19:03:57.917Z,6.53
2023-04-15T19:07:02.897Z,6.85
2023-04-15T19:13:09.341Z,6.82
2023-04-15T19:16:13.921Z,6.43
2023-04-15T19:19:17.460Z,7.20
2023-04-15T19:22:21.253Z,6.30
2023-04-15T19:25:24.568Z,7.63
2023-04-15T19:28:28.832Z,7.18
2023-04-15T19:31:32.533Z,7.57
2023-04-15T19:34:37.667Z,6.90
2023-04-15T19:37:42.142Z,6.63
2023-04-15T19:40:45.394Z,6.60
2023-04-15T19:43:50.377Z,5.85
2023-04-15T19:46:56.736Z,7.57
2023-04-15T19:50:01.621Z,7.40
2023-04-15T19:53:05.437Z,7.95
2023-04-15T19:56:12.566Z,7.32
2023-04-15T19:59:15.684Z,8.00
2023-04-15T20:02:19.614Z,8.07
2023-04-15T20:05:23.779Z,7.18
2023-04-15T20:08:27.367Z,7.10
2023-04-15T20:12:47.931Z,7.60
2023-04-15T20:14:54.457Z,7.45
2023-04-15T20:17:57.682Z,8.13
2023-04-15T20:21:01.177Z,8.05
2023-04-15T20:24:08.147Z,8.85
2023-04-15T20:27:13.432Z,8.60
2023-04-15T20:30:17.067Z,7.88
2023-04-15T20:33:20.493Z,8.07
2023-04-15T20:36:24.232Z,8.77
2023-04-15T20:39:27.788Z,8.60
2023-04-15T20:42:37.408Z,8.63
2023-04-15T20:45:40.640Z,8.77
2023-04-15T20:48:43.663Z,8.93
2023-04-15T20:51:46.735Z,9.00
2023-04-15T20:54:49.835Z,9.65
2023-04-15T20:57:52.503Z,9.52
2023-04-15T21:00:56.232Z,9.05
2023-04-15T21:03:59.318Z,9.02
2023-04-15T21:07:01.989Z,9.35
2023-04-15T21:10:05.022Z,8.48
2023-04-15T21:13:08.048Z,9.82
2023-04-15T21:16:11.110Z,9.38
2023-04-15T21:19:14.113Z,9.20
2023-04-15T21:22:16.763Z,12.95
2023-04-15T21:25:19.397Z,12.23
2023-04-15T21:28:22.670Z,13.00
2023-04-15T21:31:25.387Z,10.88
2023-04-15T21:34:28.072Z,10.68
2023-04-15T21:37:30.857Z,10.57
2023-04-15T21:40:33.558Z,11.82
2023-04-15T21:43:37.246Z,11.52
2023-04-15T21:46:39.847Z,11.95
2023-04-15T21:49:42.424Z,11.50
2023-04-15T21:52:45.318Z,13.10
2023-04-15T21:55:48.131Z,12.32
2023-04-15T21:58:51.382Z,12.55
2023-04-15T22:01:54.115Z,13.52
2023-04-15T22:04:56.926Z,13.48
2023-04-15T22:08:05.868Z,14.13
2023-04-15T22:11:09.406Z,13.65
2023-04-15T22:14:12.295Z,15.07
2023-04-15T22:17:15.234Z,13.77
2023-04-15T22:20:19.247Z,15.02
2023-04-15T22:23:22.016Z,13.38
2023-04-15T22:26:24.602Z,13.85
2023-04-15T22:29:27.453Z,13.13
2023-04-15T22:32:30.048Z,13.07
2023-04-15T22:35:32.790Z,12.80
2023-04-15T22:38:35.422Z,12.50
2023-04-15T22:41:38.037Z,14.13
2023-04-15T22:44:40.844Z,12.05
2023-04-15T22:47:46.390Z,11.55
2023-04-15T22:50:50.781Z,12.18
2023-04-15T22:53:53.662Z,11.63
2023-04-15T22:56:57.529Z,11.20
2023-04-15T23:00:00.662Z,12.98
2023-04-15T23:03:03.494Z,12.18
2023-04-15T23:06:06.613Z,12.50
2023-04-15T23:09:09.457Z,12.80
2023-04-15T23:12:13.793Z,13.07
2023-04-15T23:15:16.673Z,13.18
2023-04-15T23:18:19.307Z,13.15
2023-04-15T23:21:23.200Z,13.73
2023-04-15T23:24:26.935Z,12.63
2023-04-15T23:27:29.704Z,12.63
2023-04-15T23:30:32.260Z,12.38
2023-04-15T23:33:35.231Z,12.80
2023-04-15T23:36:38.274Z,13.60
2023-04-15T23:39:40.772Z,12.70
2023-04-15T23:42:43.625Z,14.48
2023-04-15T23:45:46.480Z,15.18
2023-04-15T23:48:49.785Z,14.68
2023-04-15T23:51:52.675Z,15.40
2023-04-15T23:54:56.490Z,15.13
2023-04-15T23:57:59.770Z,14.90
